createdAt,value
2018-08-14T00:01:53.837Z,65.60
2018-08-14T00:04:22.566Z,65.78
2018-08-14T00:06:51.306Z,65.82
2018-08-14T00:09:20.014Z,65.71
2018-08-14T00:11:48.786Z,66.29
2018-08-14T00:14:17.698Z,66.04
2018-08-14T00:16:46.585Z,66.07
2018-08-14T00:19:15.369Z,65.73
2018-08-14T00:21:44.348Z,65.32
2018-08-14T00:24:13.049Z,65.71
2018-08-14T00:26:41.974Z,65.04
2018-08-14T00:29:10.875Z,65.92
2018-08-14T00:31:39.736Z,65.63
2018-08-14T00:34:08.637Z,65.11
2018-08-14T00:36:37.469Z,65.37
2018-08-14T00:39:08.956Z,65.63
2018-08-14T00:41:38.207Z,65.97
2018-08-14T00:44:07.572Z,65.59
2018-08-14T00:46:36.309Z,66.47
2018-08-14T00:49:05.380Z,65.95
2018-08-14T00:51:34.228Z,66.28
2018-08-14T00:54:03.420Z,66.09
2018-08-14T00:56:32.313Z,65.74
2018-08-14T00:59:01.245Z,66.29
2018-08-14T01:01:29.909Z,65.76
2018-08-14T01:03:58.655Z,66.15
2018-08-14T01:06:27.667Z,66.13
2018-08-14T01:08:56.341Z,66.03
2018-08-14T01:11:25.190Z,65.91
2018-08-14T01:13:53.976Z,66.11
2018-08-14T01:16:22.922Z,66.35
2018-08-14T01:18:51.698Z,66.12
2018-08-14T01:21:20.593Z,66.19
2018-08-14T01:23:49.424Z,66.04
2018-08-14T01:26:18.384Z,65.90
2018-08-14T01:28:47.386Z,66.54
2018-08-14T01:31:16.483Z,66.40
2018-08-14T01:33:45.215Z,66.36
2018-08-14T01:36:14.216Z,66.24
2018-08-14T01:38:43.082Z,66.36
2018-08-14T01:41:12.038Z,66.32
2018-08-14T01:43:40.951Z,66.37
2018-08-14T01:46:09.965Z,66.24
2018-08-14T01:48:38.757Z,65.94
2018-08-14T01:51:07.712Z,66.00
2018-08-14T01:53:36.413Z,66.37
2018-08-14T01:56:05.326Z,66.42
2018-08-14T01:58:34.262Z,66.50
2018-08-14T02:01:03.151Z,66.67
2018-08-14T02:03:32.270Z,67.15
2018-08-14T02:06:01.050Z,67.16
2018-08-14T02:08:29.793Z,67.75
2018-08-14T02:10:58.951Z,67.58
2018-08-14T02:13:28.025Z,67.05
2018-08-14T02:15:57.001Z,67.54
2018-08-14T02:18:25.725Z,67.41
2018-08-14T02:20:54.562Z,67.62
2018-08-14T02:23:23.280Z,68.00
2018-08-14T02:25:52.330Z,68.63
2018-08-14T02:28:21.454Z,68.14
2018-08-14T02:30:50.295Z,68.17
2018-08-14T02:33:19.220Z,69.30
2018-08-14T02:35:48.369Z,68.60
2018-08-14T02:38:17.525Z,68.67
2018-08-14T02:40:46.473Z,68.13
2018-08-14T02:43:15.310Z,68.11
2018-08-14T02:45:44.280Z,68.48
2018-08-14T02:48:13.020Z,67.98
2018-08-14T02:50:42.017Z,68.02
2018-08-14T02:53:11.440Z,68.06
2018-08-14T02:55:41.346Z,68.01
2018-08-14T02:58:10.853Z,68.41
2018-08-14T03:00:39.914Z,67.98
2018-08-14T03:03:09.292Z,67.76
2018-08-14T03:05:38.084Z,68.06
2018-08-14T03:08:07.018Z,68.06
2018-08-14T03:10:35.781Z,68.21
2018-08-14T03:13:04.528Z,67.90
2018-08-14T03:15:39.738Z,67.88
2018-08-14T03:18:08.682Z,67.68
2018-08-14T03:20:41.043Z,67.82
2018-08-14T03:23:10.765Z,68.33
2018-08-14T03:25:39.450Z,68.01
2018-08-14T03:28:08.342Z,67.99
2018-08-14T03:30:37.109Z,68.06
2018-08-14T03:33:06.038Z,68.55
2018-08-14T03:35:34.981Z,68.32
2018-08-14T03:38:03.999Z,68.06
2018-08-14T03:40:33.192Z,67.66
2018-08-14T03:43:02.164Z,67.89
2018-08-14T03:45:31.050Z,67.91
2018-08-14T03:48:00.022Z,68.13
2018-08-14T03:50:28.715Z,68.61
2018-08-14T03:52:57.430Z,68.34
2018-08-14T03:55:26.393Z,68.65
2018-08-14T03:57:55.340Z,68.60
2018-08-14T04:00:24.274Z,68.62
2018-08-14T04:02:53.202Z,68.49
2018-08-14T04:05:22.163Z,68.38
2018-08-14T04:07:50.834Z,68.23
2018-08-14T04:10:19.868Z,68.93
2018-08-14T04:12:48.666Z,68.50
2018-08-14T04:15:17.588Z,68.11
2018-08-14T04:17:46.357Z,68.46
2018-08-14T04:20:15.363Z,67.96
2018-08-14T04:22:44.315Z,68.02
2018-08-14T04:25:13.402Z,67.99
2018-08-14T04:27:42.113Z,68.38
2018-08-14T04:30:13.033Z,67.63
2018-08-14T04:32:42.786Z,67.87
2018-08-14T04:35:11.644Z,68.46
2018-08-14T04:37:40.466Z,67.83
2018-08-14T04:40:10.798Z,67.61
2018-08-14T04:42:39.717Z,67.75
2018-08-14T04:45:09.002Z,67.37
2018-08-14T04:47:38.054Z,67.36
2018-08-14T04:50:08.809Z,67.39
2018-08-14T04:52:37.723Z,67.30
2018-08-14T04:55:07.494Z,67.39
2018-08-14T04:57:36.274Z,67.70
2018-08-14T05:00:08.635Z,67.57
2018-08-14T05:02:37.540Z,67.75
2018-08-14T05:05:08.219Z,67.37
2018-08-14T05:07:37.534Z,67.53
2018-08-14T05:10:07.467Z,67.51
2018-08-14T05:12:36.404Z,67.32
2018-08-14T05:15:05.850Z,67.23
2018-08-14T05:17:34.785Z,67.71
2018-08-14T05:20:03.543Z,67.94
2018-08-14T05:22:32.367Z,68.36
2018-08-14T05:25:01.158Z,68.13
2018-08-14T05:27:30.134Z,67.68
2018-08-14T05:29:59.014Z,67.41
2018-08-14T05:32:27.953Z,67.33
2018-08-14T05:34:56.802Z,67.17
2018-08-14T05:37:25.493Z,67.35
2018-08-14T05:39:54.220Z,66.81
2018-08-14T05:42:23.132Z,67.12
2018-08-14T05:44:51.782Z,66.72
2018-08-14T05:47:20.696Z,66.71
2018-08-14T05:49:49.691Z,67.16
2018-08-14T05:52:18.775Z,66.70
2018-08-14T05:54:47.822Z,66.49
2018-08-14T05:57:16.524Z,66.39
2018-08-14T05:59:45.738Z,66.57
2018-08-14T06:02:14.717Z,66.18
2018-08-14T06:04:43.656Z,65.85
2018-08-14T06:07:12.432Z,65.82
2018-08-14T06:09:41.347Z,65.54
2018-08-14T06:12:10.840Z,65.74
2018-08-14T06:14:39.787Z,65.29
2018-08-14T06:17:08.568Z,65.23
2018-08-14T06:19:37.372Z,65.22
2018-08-14T06:22:06.225Z,65.37
2018-08-14T06:24:35.134Z,64.44
2018-08-14T06:27:03.804Z,64.15
2018-08-14T06:29:33.092Z,64.50
2018-08-14T06:32:01.920Z,65.67
2018-08-14T06:34:30.821Z,64.98
2018-08-14T06:36:59.573Z,64.11
2018-08-14T06:39:28.569Z,63.87
2018-08-14T06:41:57.495Z,63.38
2018-08-14T06:44:26.279Z,63.46
2018-08-14T06:46:55.186Z,63.88
2018-08-14T06:49:24.308Z,64.33
2018-08-14T06:51:52.974Z,64.02
2018-08-14T06:54:21.866Z,63.29
2018-08-14T06:56:51.078Z,61.95
2018-08-14T06:59:19.990Z,60.28
2018-08-14T07:01:48.849Z,60.50
2018-08-14T07:04:17.808Z,59.28
2018-08-14T07:06:46.650Z,58.60
2018-08-14T07:09:15.352Z,57.09
2018-08-14T07:11:44.133Z,54.94
2018-08-14T07:14:13.263Z,55.33
2018-08-14T07:16:42.191Z,54.04
2018-08-14T07:19:11.316Z,53.16
2018-08-14T07:21:40.112Z,53.74
2018-08-14T07:24:08.878Z,53.10
2018-08-14T07:26:37.601Z,52.02
2018-08-14T07:29:06.488Z,49.90
2018-08-14T07:31:35.252Z,50.68
2018-08-14T07:34:04.106Z,50.46
2018-08-14T07:36:33.090Z,49.60
2018-08-14T07:39:02.263Z,47.84
2018-08-14T07:41:31.290Z,48.24
2018-08-14T07:44:00.126Z,47.12
2018-08-14T07:46:29.110Z,47.96
2018-08-14T07:48:58.081Z,47.48
2018-08-14T07:51:26.923Z,46.88
2018-08-14T07:53:55.803Z,46.10
2018-08-14T07:56:24.960Z,46.74
2018-08-14T07:58:53.760Z,44.43
2018-08-14T08:01:22.678Z,44.92
2018-08-14T08:03:51.452Z,43.67
2018-08-14T08:06:20.593Z,44.55
2018-08-14T08:08:49.632Z,42.81
2018-08-14T08:11:18.814Z,42.52
2018-08-14T08:13:47.776Z,42.23
2018-08-14T08:16:16.705Z,43.77
2018-08-14T08:18:45.628Z,43.31
2018-08-14T08:21:14.550Z,42.68
2018-08-14T08:23:43.246Z,42.48
2018-08-14T08:26:12.530Z,41.62
2018-08-14T08:28:41.292Z,41.19
2018-08-14T08:31:10.198Z,42.46
2018-08-14T08:33:38.889Z,41.75
2018-08-14T08:36:08.204Z,40.58
2018-08-14T08:38:37.158Z,42.41
2018-08-14T08:41:06.036Z,44.02
2018-08-14T08:43:34.926Z,44.61
2018-08-14T08:46:03.527Z,43.56
2018-08-14T08:48:32.345Z,44.82
2018-08-14T08:51:01.496Z,43.68
2018-08-14T08:53:30.404Z,43.71
2018-08-14T08:55:59.265Z,44.93
2018-08-14T08:58:28.310Z,45.61
2018-08-14T09:00:57.082Z,44.67
2018-08-14T09:03:25.972Z,45.08
2018-08-14T09:05:54.870Z,46.12
2018-08-14T09:08:23.682Z,46.39
2018-08-14T09:10:52.685Z,46.41
2018-08-14T09:13:21.579Z,45.41
2018-08-14T09:15:50.260Z,42.92
2018-08-14T09:18:19.912Z,40.20
2018-08-14T09:20:48.988Z,39.54
2018-08-14T09:23:17.887Z,36.54
2018-08-14T09:25:46.789Z,37.45
2018-08-14T09:28:15.535Z,38.27
2018-08-14T09:30:44.567Z,37.19
2018-08-14T09:33:13.394Z,39.58
2018-08-14T09:35:42.151Z,40.40
2018-08-14T09:41:43.283Z,42.79
2018-08-14T09:44:12.217Z,42.43
2018-08-14T09:46:41.307Z,42.90
2018-08-14T09:49:10.217Z,43.99
2018-08-14T09:51:38.951Z,46.15
2018-08-14T09:54:07.888Z,44.27
2018-08-14T09:56:37.039Z,47.74
2018-08-14T09:59:05.990Z,46.48
2018-08-14T10:01:40.284Z,48.17
2018-08-14T10:04:14.775Z,47.42
2018-08-14T10:06:48.932Z,47.25
2018-08-14T10:09:17.899Z,47.54
2018-08-14T10:11:46.654Z,47.74
2018-08-14T10:14:16.459Z,48.18
2018-08-14T10:16:45.218Z,48.61
2018-08-14T10:19:14.155Z,48.71
2018-08-14T10:21:42.915Z,48.89
2018-08-14T10:24:12.365Z,48.64
2018-08-14T10:26:41.251Z,48.29
2018-08-14T10:29:10.185Z,48.35
2018-08-14T10:31:39.228Z,47.81
2018-08-14T10:34:08.088Z,48.17
2018-08-14T10:36:37.579Z,48.32
2018-08-14T10:39:08.622Z,49.06
2018-08-14T10:41:37.282Z,48.36
2018-08-14T10:44:06.811Z,49.29
2018-08-14T10:46:35.693Z,50.24
2018-08-14T10:49:04.512Z,50.52
2018-08-14T10:51:33.417Z,50.84
2018-08-14T10:54:02.433Z,50.23
2018-08-14T10:56:31.784Z,49.19
2018-08-14T10:59:00.443Z,50.29
2018-08-14T11:01:29.212Z,49.54
2018-08-14T11:03:58.023Z,50.14
2018-08-14T11:06:26.763Z,50.54
2018-08-14T11:08:55.698Z,49.49
2018-08-14T11:11:30.931Z,49.93
2018-08-14T11:14:00.001Z,49.20
2018-08-14T11:16:28.966Z,49.40
2018-08-14T11:18:57.842Z,50.19
2018-08-14T11:21:26.719Z,50.77
2018-08-14T11:23:55.348Z,50.21
2018-08-14T11:26:24.442Z,49.93
2018-08-14T11:28:53.333Z,49.60
2018-08-14T11:31:22.029Z,48.84
2018-08-14T11:33:51.027Z,49.26
2018-08-14T11:36:20.012Z,49.02
2018-08-14T11:38:48.810Z,49.60
2018-08-14T11:41:17.632Z,48.53
2018-08-14T11:43:46.323Z,46.86
2018-08-14T11:46:15.175Z,46.88
2018-08-14T11:48:43.957Z,45.99
2018-08-14T11:51:12.625Z,45.12
2018-08-14T11:53:41.451Z,45.14
2018-08-14T11:56:10.436Z,44.63
2018-08-14T11:58:39.363Z,44.39
2018-08-14T12:01:08.251Z,44.46
2018-08-14T12:03:37.359Z,44.05
2018-08-14T12:06:06.465Z,44.43
2018-08-14T12:08:35.266Z,45.27
2018-08-14T12:11:04.123Z,44.46
2018-08-14T12:13:32.884Z,44.82
2018-08-14T12:16:01.841Z,45.07
2018-08-14T12:18:30.497Z,45.69
2018-08-14T12:20:59.362Z,45.76
2018-08-14T12:23:28.451Z,45.57
2018-08-14T12:25:57.028Z,45.53
2018-08-14T12:28:25.910Z,44.65
2018-08-14T12:30:54.574Z,44.23
2018-08-14T12:33:23.385Z,43.96
2018-08-14T12:35:52.244Z,43.99
2018-08-14T12:38:21.110Z,44.12
2018-08-14T12:40:50.044Z,43.36
2018-08-14T12:43:19.741Z,44.25
2018-08-14T12:45:48.631Z,43.99
2018-08-14T12:48:17.767Z,44.44
2018-08-14T12:50:46.570Z,44.82
2018-08-14T12:53:15.363Z,44.41
2018-08-14T12:55:44.252Z,44.02
2018-08-14T12:58:13.029Z,44.53
2018-08-14T13:00:41.887Z,44.45
2018-08-14T13:03:10.522Z,44.38
2018-08-14T13:05:39.370Z,44.33
2018-08-14T13:08:08.452Z,43.92
2018-08-14T13:10:37.149Z,44.25
2018-08-14T13:13:06.104Z,45.18
2018-08-14T13:15:35.066Z,44.12
2018-08-14T13:18:10.018Z,44.13
2018-08-14T13:20:39.128Z,43.60
2018-08-14T13:23:09.957Z,43.43
2018-08-14T13:25:38.891Z,42.56
2018-08-14T13:28:08.926Z,43.56
2018-08-14T13:30:37.871Z,43.18
2018-08-14T13:33:07.170Z,40.41
2018-08-14T13:35:36.135Z,40.53
2018-08-14T13:38:05.092Z,39.94
2018-08-14T13:40:34.122Z,40.70
2018-08-14T13:43:02.941Z,39.15
2018-08-14T13:45:31.735Z,39.55
2018-08-14T13:48:00.768Z,39.44
2018-08-14T13:50:29.387Z,39.64
2018-08-14T13:52:58.115Z,39.79
2018-08-14T13:55:26.897Z,38.65
2018-08-14T13:57:56.070Z,38.25
2018-08-14T14:00:28.215Z,34.47
2018-08-14T14:02:57.146Z,34.03
2018-08-14T14:05:26.047Z,34.12
2018-08-14T14:07:54.966Z,33.88
2018-08-14T14:10:24.186Z,31.99
2018-08-14T14:12:52.913Z,28.77
2018-08-14T14:15:23.207Z,31.22
2018-08-14T14:17:53.039Z,33.63
2018-08-14T14:20:27.059Z,37.55
2018-08-14T14:22:55.883Z,39.47
2018-08-14T14:25:24.660Z,40.38
2018-08-14T14:27:53.914Z,41.76
2018-08-14T14:30:22.701Z,42.68
2018-08-14T14:32:51.661Z,43.65
2018-08-14T14:35:20.790Z,44.60
2018-08-14T14:37:49.752Z,46.28
2018-08-14T14:40:26.566Z,45.38
2018-08-14T14:43:01.660Z,44.61
2018-08-14T14:45:30.486Z,45.26
2018-08-14T14:47:59.459Z,45.69
2018-08-14T14:50:28.220Z,45.95
2018-08-14T14:52:56.901Z,46.07
2018-08-14T14:55:25.793Z,48.41
2018-08-14T14:57:54.922Z,47.92
2018-08-14T15:00:25.382Z,48.00
2018-08-14T15:02:56.468Z,48.29
2018-08-14T15:05:25.708Z,48.25
2018-08-14T15:07:54.601Z,49.01
2018-08-14T15:10:23.813Z,48.86
2018-08-14T15:12:52.601Z,48.87
2018-08-14T15:15:21.356Z,49.41
2018-08-14T15:17:51.023Z,49.38
2018-08-14T15:20:22.741Z,50.45
2018-08-14T15:22:52.906Z,49.38
2018-08-14T15:25:22.879Z,49.80
2018-08-14T15:29:19.595Z,49.94
2018-08-14T15:31:52.764Z,51.56
2018-08-14T15:34:23.699Z,50.71
2018-08-14T15:36:54.747Z,51.02
2018-08-14T15:39:24.358Z,50.65
2018-08-14T15:41:53.692Z,51.07
2018-08-14T15:44:22.601Z,51.28
2018-08-14T15:46:51.598Z,51.48
2018-08-14T15:49:21.020Z,52.08
2018-08-14T15:51:49.896Z,51.30
2018-08-14T15:54:18.932Z,52.68
2018-08-14T15:56:48.508Z,52.27
2018-08-14T15:59:17.465Z,52.22
2018-08-14T16:01:46.839Z,53.30
2018-08-14T16:04:16.819Z,52.59
2018-08-14T16:06:45.850Z,53.35
2018-08-14T16:09:18.699Z,53.18
2018-08-14T16:11:48.667Z,53.48
2018-08-14T16:14:17.793Z,52.66
2018-08-14T16:16:46.815Z,53.19
2018-08-14T16:19:16.854Z,53.17
2018-08-14T16:21:45.779Z,53.64
2018-08-14T16:24:16.374Z,52.77
2018-08-14T16:26:45.248Z,52.60
2018-08-14T16:29:14.146Z,52.74
2018-08-14T16:31:43.104Z,52.59
2018-08-14T16:34:12.082Z,52.78
2018-08-14T16:36:41.002Z,52.71
2018-08-14T16:39:11.838Z,52.97
2018-08-14T16:41:41.151Z,52.53
2018-08-14T16:44:10.336Z,52.49
2018-08-14T16:46:39.543Z,52.76
2018-08-14T16:49:08.727Z,53.06
2018-08-14T16:51:37.473Z,52.97
2018-08-14T16:54:06.615Z,53.45
2018-08-14T16:56:35.323Z,53.08
2018-08-14T16:59:04.921Z,52.74
2018-08-14T17:01:34.909Z,52.79
2018-08-14T17:04:04.234Z,53.51
2018-08-14T17:06:33.195Z,53.46
2018-08-14T17:09:02.040Z,54.48
2018-08-14T17:11:31.455Z,54.20
2018-08-14T17:14:00.231Z,54.69
2018-08-14T17:16:29.061Z,54.59
2018-08-14T17:18:57.929Z,55.15
2018-08-14T17:21:25.425Z,54.95
2018-08-14T17:23:54.423Z,54.73
2018-08-14T17:26:23.239Z,55.50
2018-08-14T17:28:52.156Z,55.50
2018-08-14T17:31:21.132Z,55.75
2018-08-14T17:33:50.108Z,56.27
2018-08-14T17:36:18.852Z,55.73
2018-08-14T17:38:47.812Z,55.76
2018-08-14T17:41:16.803Z,55.41
2018-08-14T17:43:45.499Z,55.85
2018-08-14T17:46:14.432Z,55.96
2018-08-14T17:48:43.788Z,56.31
2018-08-14T17:51:13.039Z,56.52
2018-08-14T17:53:41.982Z,56.46
2018-08-14T17:56:10.675Z,56.64
2018-08-14T17:58:39.717Z,57.79
2018-08-14T18:01:08.771Z,56.99
2018-08-14T18:03:38.082Z,57.19
2018-08-14T18:06:07.485Z,57.84
2018-08-14T18:09:39.292Z,57.79
2018-08-14T18:12:07.968Z,58.05
2018-08-14T18:14:36.835Z,58.97
2018-08-14T18:17:06.025Z,59.13
2018-08-14T18:19:35.111Z,59.33
2018-08-14T18:22:04.415Z,60.17
2018-08-14T18:24:33.291Z,60.43
2018-08-14T18:27:02.956Z,60.35
2018-08-14T18:29:32.132Z,60.74
2018-08-14T18:32:00.861Z,60.77
2018-08-14T18:34:29.581Z,60.89
2018-08-14T18:36:59.225Z,61.44
2018-08-14T18:39:28.736Z,61.32
2018-08-14T18:41:58.752Z,61.53
2018-08-14T18:44:27.860Z,62.34
2018-08-14T18:46:57.026Z,62.22
2018-08-14T18:49:25.913Z,63.33
2018-08-14T18:51:55.157Z,62.86
2018-08-14T18:54:24.707Z,63.25
2018-08-14T18:56:53.608Z,63.20
2018-08-14T18:59:22.826Z,63.23
2018-08-14T19:01:51.889Z,64.34
2018-08-14T19:04:21.316Z,63.75
2018-08-14T19:06:50.287Z,64.36
2018-08-14T19:09:19.111Z,64.57
2018-08-14T19:11:47.994Z,64.88
2018-08-14T19:14:16.987Z,65.06
2018-08-14T19:16:46.125Z,66.10
2018-08-14T19:19:15.256Z,66.76
2018-08-14T19:21:44.103Z,65.36
2018-08-14T19:24:13.156Z,66.29
2018-08-14T19:26:42.057Z,66.23
2018-08-14T19:29:11.192Z,65.74
2018-08-14T19:31:40.952Z,65.80
2018-08-14T19:34:10.401Z,65.84
2018-08-14T19:36:40.701Z,66.24
2018-08-14T19:39:12.059Z,66.50
2018-08-14T19:41:42.346Z,66.45
2018-08-14T19:44:13.312Z,66.67
2018-08-14T19:46:42.986Z,67.10
2018-08-14T19:49:12.116Z,67.66
2018-08-14T19:51:41.470Z,67.73
2018-08-14T19:54:11.139Z,67.67
2018-08-14T19:56:40.148Z,68.63
2018-08-14T19:59:09.221Z,67.82
2018-08-14T20:01:38.398Z,67.76
2018-08-14T20:04:07.871Z,67.87
2018-08-14T20:06:38.532Z,68.62
2018-08-14T20:09:10.701Z,68.53
2018-08-14T20:11:39.515Z,68.94
2018-08-14T20:14:08.710Z,69.06
2018-08-14T20:16:41.985Z,69.06
2018-08-14T20:19:11.334Z,69.00
2018-08-14T20:21:40.812Z,69.30
2018-08-14T20:24:10.214Z,69.28
2018-08-14T20:26:39.342Z,69.76
2018-08-14T20:29:08.490Z,69.91
2018-08-14T20:31:51.861Z,70.36
2018-08-14T20:34:21.469Z,70.29
2018-08-14T20:36:50.503Z,71.65
2018-08-14T20:39:21.781Z,70.67
2018-08-14T20:41:51.112Z,70.63
2018-08-14T20:44:21.212Z,70.17
2018-08-14T20:46:50.441Z,70.25
2018-08-14T20:49:20.122Z,70.43
2018-08-14T20:51:49.247Z,70.27
2018-08-14T20:54:19.545Z,70.35
2018-08-14T20:56:48.758Z,70.87
2018-08-14T20:59:17.690Z,70.80
2018-08-14T21:01:47.139Z,70.41
2018-08-14T21:04:15.984Z,70.60
2018-08-14T21:06:45.140Z,70.62
2018-08-14T21:09:14.060Z,70.87
2018-08-14T21:11:43.498Z,71.12
2018-08-14T21:14:12.804Z,71.32
2018-08-14T21:16:42.487Z,71.26
2018-08-14T21:19:11.621Z,71.45
2018-08-14T21:21:40.763Z,71.51
2018-08-14T21:24:09.740Z,71.69
2018-08-14T21:26:40.547Z,72.46
2018-08-14T21:29:10.061Z,71.71
2018-08-14T21:31:39.691Z,72.09
2018-08-14T21:34:09.125Z,72.36
2018-08-14T21:36:39.476Z,72.49
2018-08-14T21:39:11.086Z,72.71
2018-08-14T21:41:40.317Z,73.13
2018-08-14T21:44:09.927Z,73.01
2018-08-14T21:46:39.684Z,73.08
2018-08-14T21:49:09.790Z,73.08
2018-08-14T21:51:38.986Z,73.21
2018-08-14T21:54:08.306Z,73.78
2018-08-14T21:56:37.336Z,73.65
2018-08-14T21:59:06.415Z,73.79
2018-08-14T22:01:35.220Z,74.12
2018-08-14T22:04:04.102Z,73.86
2018-08-14T22:06:32.949Z,74.05
2018-08-14T22:09:01.895Z,74.02
2018-08-14T22:11:30.615Z,73.89
2018-08-14T22:13:59.402Z,74.30
2018-08-14T22:16:28.439Z,74.40
2018-08-14T22:18:57.684Z,74.56
2018-08-14T22:21:27.189Z,74.60
2018-08-14T22:23:56.351Z,74.52
2018-08-14T22:26:25.609Z,74.48
2018-08-14T22:28:54.939Z,74.34
2018-08-14T22:31:24.253Z,74.58
2018-08-14T22:33:53.616Z,75.22
2018-08-14T22:36:22.936Z,75.21
2018-08-14T22:38:52.339Z,75.12
2018-08-14T22:41:21.622Z,75.15
2018-08-14T22:43:50.920Z,74.93
2018-08-14T22:46:20.120Z,74.96
2018-08-14T22:48:49.418Z,75.41
2018-08-14T22:51:18.667Z,75.37
2018-08-14T22:53:47.980Z,75.21
2018-08-14T22:56:17.185Z,75.28
2018-08-14T22:58:46.427Z,76.38
2018-08-14T23:01:15.976Z,75.55
2018-08-14T23:03:45.368Z,75.41
2018-08-14T23:06:14.557Z,75.36
2018-08-14T23:08:43.795Z,75.83
2018-08-14T23:11:13.038Z,75.73
2018-08-14T23:13:42.286Z,75.91
2018-08-14T23:16:11.597Z,75.79
2018-08-14T23:18:40.817Z,75.91
2018-08-14T23:21:10.044Z,75.78
2018-08-14T23:23:39.370Z,75.76
2018-08-14T23:26:08.789Z,75.74
2018-08-14T23:28:38.191Z,76.02
2018-08-14T23:31:07.423Z,76.16
2018-08-14T23:33:36.616Z,76.21
2018-08-14T23:36:05.817Z,75.90
2018-08-14T23:38:35.106Z,76.32
2018-08-14T23:41:04.236Z,76.30
2018-08-14T23:43:33.413Z,76.32
2018-08-14T23:46:02.636Z,76.33
2018-08-14T23:48:32.042Z,76.32
2018-08-14T23:51:01.358Z,76.67
2018-08-14T23:53:30.440Z,76.28
2018-08-14T23:55:59.473Z,76.33
2018-08-14T23:58:29.124Z,76.06
